createdAt,value
2023-03-21T00:00:12.806Z,9
2023-03-21T00:01:12.096Z,9
2023-03-21T00:02:11.784Z,9
2023-03-21T00:03:11.757Z,9
2023-03-21T00:04:11.934Z,9
2023-03-21T00:05:15.796Z,9
2023-03-21T00:06:11.727Z,9
2023-03-21T00:07:11.827Z,9
2023-03-21T00:08:11.708Z,9
2023-03-21T00:09:11.693Z,8
2023-03-21T00:10:16.623Z,8
2023-03-21T00:11:12.694Z,8
2023-03-21T00:12:11.668Z,8
2023-03-21T00:13:11.654Z,8
2023-03-21T00:14:11.745Z,8
2023-03-21T00:15:11.638Z,8
2023-03-21T00:17:12.661Z,9
2023-03-21T00:18:11.598Z,8
2023-03-21T00:19:11.592Z,8
2023-03-21T00:20:11.579Z,8
2023-03-21T00:22:11.561Z,8
2023-03-21T00:23:11.552Z,8
2023-03-21T00:24:11.542Z,9
2023-03-21T00:25:11.531Z,9
2023-03-21T00:26:11.516Z,9
2023-03-21T00:27:38.372Z,8
2023-03-21T00:28:12.527Z,9
2023-03-21T00:29:11.490Z,9
2023-03-21T00:30:11.516Z,8
2023-03-21T00:31:11.469Z,8
2023-03-21T00:32:11.458Z,8
2023-03-21T00:33:22.021Z,8
2023-03-21T00:35:48.010Z,8
2023-03-21T00:36:12.971Z,8
2023-03-21T00:37:11.408Z,8
2023-03-21T00:38:11.406Z,8
2023-03-21T00:39:11.383Z,8
2023-03-21T00:40:22.992Z,8
2023-03-21T00:41:23.297Z,8
2023-03-21T00:42:12.371Z,9
2023-03-21T00:43:11.346Z,9
2023-03-21T00:44:11.339Z,9
2023-03-21T00:45:11.327Z,9
2023-03-21T00:46:11.394Z,9
2023-03-21T00:47:11.360Z,9
2023-03-21T00:48:11.326Z,9
2023-03-21T00:49:11.305Z,9
2023-03-21T00:50:11.269Z,8
2023-03-21T00:51:11.413Z,9
2023-03-21T00:52:27.512Z,9
2023-03-21T00:53:12.260Z,9
2023-03-21T00:54:11.232Z,9
2023-03-21T00:55:11.221Z,9
2023-03-21T00:56:11.212Z,8
2023-03-21T00:57:11.200Z,9
2023-03-21T00:58:11.190Z,9
2023-03-21T00:59:11.178Z,9
2023-03-21T01:00:11.180Z,9
2023-03-21T01:01:11.228Z,9
2023-03-21T01:02:11.202Z,9
2023-03-21T01:03:23.207Z,9
2023-03-21T01:04:12.161Z,9
2023-03-21T01:05:11.147Z,9
2023-03-21T01:06:11.106Z,8
2023-03-21T01:07:11.116Z,8
2023-03-21T01:08:25.121Z,8
2023-03-21T01:09:12.097Z,8
2023-03-21T01:10:11.067Z,8
2023-03-21T01:11:11.056Z,7
2023-03-21T01:12:11.050Z,7
2023-03-21T01:13:11.036Z,7
2023-03-21T01:14:21.966Z,7
2023-03-21T01:15:12.031Z,8
2023-03-21T01:17:10.993Z,8
2023-03-21T01:18:10.983Z,8
2023-03-21T01:19:22.133Z,8
2023-03-21T01:20:12.086Z,8
2023-03-21T01:21:10.976Z,8
2023-03-21T01:22:10.939Z,8
2023-03-21T01:23:10.931Z,8
2023-03-21T01:24:10.919Z,9
2023-03-21T01:25:22.032Z,9
2023-03-21T01:26:11.928Z,9
2023-03-21T01:27:10.894Z,8
2023-03-21T01:28:10.880Z,8
2023-03-21T01:29:10.869Z,7
2023-03-21T01:30:19.122Z,7
2023-03-21T01:31:11.920Z,7
2023-03-21T01:32:10.844Z,7
2023-03-21T01:33:10.827Z,7
2023-03-21T01:34:10.818Z,7
2023-03-21T01:35:10.812Z,7
2023-03-21T01:36:13.558Z,7
2023-03-21T01:37:10.833Z,7
2023-03-21T01:38:10.776Z,7
2023-03-21T01:39:10.768Z,8
2023-03-21T01:40:10.755Z,8
2023-03-21T01:41:19.245Z,8
2023-03-21T01:42:11.759Z,8
2023-03-21T01:43:10.726Z,8
2023-03-21T01:44:10.721Z,8
2023-03-21T01:45:10.707Z,8
2023-03-21T01:46:10.756Z,8
2023-03-21T01:47:12.598Z,8
2023-03-21T01:48:10.718Z,7
2023-03-21T01:49:10.668Z,7
2023-03-21T01:50:10.655Z,7
2023-03-21T01:51:10.645Z,7
2023-03-21T01:52:15.238Z,6
2023-03-21T01:53:11.671Z,6
2023-03-21T01:54:10.615Z,7
2023-03-21T01:55:10.606Z,7
2023-03-21T01:56:10.595Z,7
2023-03-21T01:57:10.583Z,7
2023-03-21T01:58:10.574Z,7
2023-03-21T01:59:10.560Z,7
2023-03-21T02:00:10.554Z,7
2023-03-21T02:01:10.679Z,7
2023-03-21T02:02:10.532Z,7
2023-03-21T02:03:15.338Z,7
2023-03-21T02:04:11.567Z,8
2023-03-21T02:05:10.503Z,8
2023-03-21T02:06:10.493Z,8
2023-03-21T02:07:10.483Z,8
2023-03-21T02:08:10.477Z,7
2023-03-21T02:09:10.488Z,7
2023-03-21T02:10:10.461Z,7
2023-03-21T02:11:10.438Z,7
2023-03-21T02:12:10.465Z,7
2023-03-21T02:13:10.421Z,7
2023-03-21T02:14:13.253Z,7
2023-03-21T02:15:10.397Z,7
2023-03-21T02:16:10.391Z,7
2023-03-21T02:17:10.379Z,7
2023-03-21T02:18:10.377Z,7
2023-03-21T02:19:11.533Z,7
2023-03-21T02:20:10.354Z,7
2023-03-21T02:21:10.337Z,7
2023-03-21T02:22:10.326Z,7
2023-03-21T02:23:10.319Z,7
2023-03-21T02:24:10.312Z,7
2023-03-21T02:25:21.368Z,7
2023-03-21T02:26:11.313Z,7
2023-03-21T02:27:10.291Z,7
2023-03-21T02:28:10.268Z,7
2023-03-21T02:29:10.258Z,7
2023-03-21T02:30:14.851Z,7
2023-03-21T02:31:11.335Z,6
2023-03-21T02:32:20.220Z,7
2023-03-21T02:33:11.258Z,7
2023-03-21T02:34:10.222Z,6
2023-03-21T02:35:10.201Z,7
2023-03-21T02:36:14.225Z,7
2023-03-21T02:37:10.186Z,7
2023-03-21T02:38:10.166Z,7
2023-03-21T02:39:10.160Z,7
2023-03-21T02:40:10.147Z,7
2023-03-21T02:41:18.360Z,7
2023-03-21T02:42:11.144Z,7
2023-03-21T02:43:20.864Z,8
2023-03-21T02:44:17.129Z,8
2023-03-21T02:45:10.113Z,8
2023-03-21T02:46:10.260Z,8
2023-03-21T02:47:10.402Z,7
2023-03-21T02:48:20.289Z,7
2023-03-21T02:49:11.116Z,7
2023-03-21T02:50:10.094Z,7
2023-03-21T02:51:10.075Z,7
2023-03-21T02:52:18.563Z,7
2023-03-21T02:53:11.040Z,7
2023-03-21T02:54:29.936Z,7
2023-03-21T02:55:11.022Z,7
2023-03-21T02:56:09.986Z,7
2023-03-21T02:57:10.028Z,7
2023-03-21T02:58:13.103Z,8
2023-03-21T02:59:10.017Z,7
2023-03-21T03:00:16.125Z,8
2023-03-21T03:01:11.002Z,7
2023-03-21T03:02:09.941Z,7
2023-03-21T03:03:12.719Z,8
2023-03-21T03:04:10.959Z,8
2023-03-21T03:05:20.472Z,8
2023-03-21T03:06:10.911Z,8
2023-03-21T03:07:09.880Z,8
2023-03-21T03:08:09.870Z,8
2023-03-21T03:09:09.861Z,8
2023-03-21T03:10:09.849Z,8
2023-03-21T03:11:09.844Z,8
2023-03-21T03:12:09.828Z,8
2023-03-21T03:13:09.848Z,8
2023-03-21T03:14:31.462Z,8
2023-03-21T03:15:10.813Z,8
2023-03-21T03:16:09.835Z,8
2023-03-21T03:17:09.778Z,8
2023-03-21T03:18:09.772Z,8
2023-03-21T03:19:09.761Z,8
2023-03-21T03:20:16.265Z,8
2023-03-21T03:21:10.757Z,8
2023-03-21T03:22:09.727Z,8
2023-03-21T03:23:09.718Z,8
2023-03-21T03:24:09.703Z,8
2023-03-21T03:25:21.233Z,8
2023-03-21T03:26:10.709Z,8
2023-03-21T03:27:09.677Z,8
2023-03-21T03:28:09.668Z,8
2023-03-21T03:29:09.681Z,7
2023-03-21T03:30:09.639Z,7
2023-03-21T03:31:10.615Z,8
2023-03-21T03:32:09.701Z,8
2023-03-21T03:33:09.610Z,8
2023-03-21T03:34:09.600Z,8
2023-03-21T03:35:09.607Z,8
2023-03-21T03:36:14.835Z,8
2023-03-21T03:37:10.596Z,8
2023-03-21T03:38:09.556Z,8
2023-03-21T03:39:09.553Z,8
2023-03-21T03:40:09.539Z,8
2023-03-21T03:41:09.532Z,8
2023-03-21T03:42:25.369Z,8
2023-03-21T03:43:10.529Z,7
2023-03-21T03:44:09.547Z,7
2023-03-21T03:45:09.513Z,8
2023-03-21T03:46:09.496Z,8
2023-03-21T03:47:11.809Z,8
2023-03-21T03:48:09.485Z,8
2023-03-21T03:49:09.452Z,8
2023-03-21T03:50:09.439Z,8
2023-03-21T03:51:09.427Z,8
2023-03-21T03:52:09.418Z,8
2023-03-21T03:53:17.579Z,8
2023-03-21T03:54:10.416Z,8
2023-03-21T03:55:09.385Z,8
2023-03-21T03:56:09.374Z,8
2023-03-21T03:57:09.362Z,8
2023-03-21T03:58:21.337Z,8
2023-03-21T03:59:10.422Z,8
2023-03-21T04:00:09.333Z,8
2023-03-21T04:01:09.358Z,8
2023-03-21T04:02:09.410Z,8
2023-03-21T04:03:09.379Z,8
2023-03-21T04:04:13.181Z,8
2023-03-21T04:05:09.439Z,8
2023-03-21T04:06:09.277Z,8
2023-03-21T04:07:09.269Z,8
2023-03-21T04:08:09.262Z,8
2023-03-21T04:09:19.212Z,8
2023-03-21T04:10:10.254Z,8
2023-03-21T04:11:09.225Z,8
2023-03-21T04:12:09.215Z,8
2023-03-21T04:13:09.210Z,8
2023-03-21T04:14:09.199Z,7
2023-03-21T04:15:11.018Z,7
2023-03-21T04:16:09.205Z,7
2023-03-21T04:17:09.193Z,7
2023-03-21T04:18:09.157Z,7
2023-03-21T04:19:09.142Z,7
2023-03-21T04:20:13.937Z,7
2023-03-21T04:21:10.146Z,7
2023-03-21T04:22:09.115Z,7
2023-03-21T04:23:09.127Z,7
2023-03-21T04:24:09.097Z,7
2023-03-21T04:25:09.089Z,6
2023-03-21T04:26:09.080Z,6
2023-03-21T04:27:09.072Z,6
2023-03-21T04:28:09.062Z,6
2023-03-21T04:29:09.044Z,6
2023-03-21T04:30:09.038Z,7
2023-03-21T04:31:24.155Z,7
2023-03-21T04:32:10.099Z,8
2023-03-21T04:33:09.029Z,7
2023-03-21T04:34:08.991Z,8
2023-03-21T04:35:08.979Z,7
2023-03-21T04:36:08.992Z,7
2023-03-21T04:37:08.957Z,7
2023-03-21T04:38:09.049Z,7
2023-03-21T04:39:08.937Z,7
2023-03-21T04:40:08.926Z,7
2023-03-21T04:41:08.926Z,7
2023-03-21T04:42:08.907Z,7
2023-03-21T04:43:08.899Z,7
2023-03-21T04:44:08.893Z,7
2023-03-21T04:45:08.881Z,6
2023-03-21T04:46:08.902Z,6
2023-03-21T04:47:08.858Z,69.
2023-03-21T04:48:08.869Z,69.
2023-03-21T04:49:08.856Z,69.
2023-03-21T04:50:08.829Z,68.
2023-03-21T04:51:08.836Z,6
2023-03-21T04:52:08.806Z,6
2023-03-21T04:53:08.801Z,7
2023-03-21T04:54:09.857Z,6
2023-03-21T04:55:08.773Z,6
2023-03-21T04:56:08.760Z,65.
2023-03-21T04:57:08.766Z,67.
2023-03-21T04:58:08.738Z,6
2023-03-21T04:59:08.733Z,6
2023-03-21T05:00:08.722Z,6
2023-03-21T05:01:08.821Z,66.
2023-03-21T05:02:08.698Z,66.
2023-03-21T05:03:08.691Z,65.
2023-03-21T05:04:08.734Z,66.
2023-03-21T05:05:08.691Z,63.
2023-03-21T05:06:08.654Z,66.
2023-03-21T05:07:08.647Z,68.
2023-03-21T05:08:08.634Z,67.
2023-03-21T05:09:08.626Z,68.
2023-03-21T05:10:08.620Z,69.
2023-03-21T05:11:08.601Z,68.
2023-03-21T05:12:08.599Z,69.
2023-03-21T05:13:08.594Z,70.
2023-03-21T05:14:08.586Z,70.
2023-03-21T05:15:08.566Z,71.
2023-03-21T05:16:08.549Z,71.
2023-03-21T05:17:08.540Z,77.
2023-03-21T05:18:08.537Z,73.
2023-03-21T05:19:08.520Z,73.
2023-03-21T05:20:08.509Z,71.
2023-03-21T05:21:08.530Z,71.
2023-03-21T05:22:08.494Z,71.
2023-03-21T05:23:08.491Z,70.
2023-03-21T05:24:08.471Z,69.
2023-03-21T05:25:08.459Z,74.
2023-03-21T05:26:08.447Z,75.
2023-03-21T05:27:08.438Z,71.
2023-03-21T05:28:08.424Z,70.40
2023-03-21T05:29:08.417Z,69.00
2023-03-21T05:30:08.427Z,66.00
2023-03-21T05:31:08.548Z,68.19
2023-03-21T05:32:08.393Z,64.09
2023-03-21T05:33:08.378Z,62.40
2023-03-21T05:34:08.368Z,61.59
2023-03-21T05:35:08.362Z,62.20
2023-03-21T05:36:08.369Z,61.40
2023-03-21T05:37:08.357Z,61.79
2023-03-21T05:38:08.326Z,63.50
2023-03-21T05:39:08.314Z,62.40
2023-03-21T05:40:08.306Z,61.90
2023-03-21T05:41:08.302Z,62.79
2023-03-21T05:42:08.280Z,60.09
2023-03-21T05:43:08.284Z,63.20
2023-03-21T05:44:08.268Z,66.09
2023-03-21T05:45:08.253Z,70.69
2023-03-21T05:46:08.289Z,71.80
2023-03-21T05:47:08.229Z,75.09
2023-03-21T05:48:08.467Z,71.09
2023-03-21T05:49:08.208Z,69.59
2023-03-21T05:50:08.199Z,69.09
2023-03-21T05:51:08.190Z,66.80
2023-03-21T05:52:08.177Z,66.50
2023-03-21T05:53:08.195Z,68.59
2023-03-21T05:54:08.164Z,69.19
2023-03-21T05:55:08.152Z,69.09
2023-03-21T05:56:08.142Z,68.19
2023-03-21T05:57:08.127Z,66.80
2023-03-21T05:58:08.119Z,68.30
2023-03-21T05:59:08.109Z,66.30
2023-03-21T06:00:08.100Z,65.40
2023-03-21T06:01:08.088Z,67.09
2023-03-21T06:02:08.076Z,68.09
2023-03-21T06:03:08.068Z,61.70
2023-03-21T06:04:08.140Z,65.09
2023-03-21T06:05:08.047Z,65.59
2023-03-21T06:06:08.042Z,67.09
2023-03-21T06:07:08.030Z,68.80
2023-03-21T06:08:08.024Z,71.90
2023-03-21T06:09:08.038Z,70.19
2023-03-21T06:10:08.001Z,69.00
2023-03-21T06:11:07.992Z,70.59
2023-03-21T06:12:07.981Z,66.80
2023-03-21T06:13:07.983Z,67.40
2023-03-21T06:14:07.972Z,69.19
2023-03-21T06:15:07.951Z,70.00
2023-03-21T06:16:08.087Z,68.19
2023-03-21T06:17:07.927Z,62.70
2023-03-21T06:18:07.926Z,62.70
2023-03-21T06:19:07.904Z,63.79
2023-03-21T06:20:07.896Z,61.40
2023-03-21T06:21:07.885Z,61.00
2023-03-21T06:22:07.880Z,59.20
2023-03-21T06:23:07.866Z,61.40
2023-03-21T06:24:07.857Z,60.29
2023-03-21T06:25:07.867Z,62.50
2023-03-21T06:26:07.837Z,60.09
2023-03-21T06:27:07.828Z,61.09
2023-03-21T06:28:07.815Z,62.09
2023-03-21T06:29:07.807Z,60.59
2023-03-21T06:30:07.796Z,61.40
2023-03-21T06:31:07.861Z,61.79
2023-03-21T06:32:07.774Z,59.79
2023-03-21T06:33:07.763Z,60.59
2023-03-21T06:34:07.753Z,61.59
2023-03-21T06:35:07.743Z,64.59
2023-03-21T06:36:07.775Z,64.69
2023-03-21T06:37:07.727Z,62.09
2023-03-21T06:38:07.709Z,59.29
2023-03-21T06:39:07.700Z,60.29
2023-03-21T06:40:07.690Z,58.90
2023-03-21T06:41:07.711Z,59.90
2023-03-21T06:42:07.677Z,59.40
2023-03-21T06:43:07.662Z,57.50
2023-03-21T06:44:07.656Z,57.70
2023-03-21T06:45:07.637Z,59.50
2023-03-21T06:46:07.635Z,58.50
2023-03-21T06:47:07.755Z,58.79
2023-03-21T06:48:09.367Z,57.50
2023-03-21T06:49:07.596Z,57.79
2023-03-21T06:50:07.591Z,58.70
2023-03-21T06:51:07.579Z,58.29
2023-03-21T06:52:07.573Z,59.00
2023-03-21T06:53:07.575Z,59.09
2023-03-21T06:54:07.551Z,58.90
2023-03-21T06:55:07.539Z,57.29
2023-03-21T06:56:07.534Z,58.40
2023-03-21T06:57:07.543Z,58.70
2023-03-21T06:58:07.512Z,56.70
2023-03-21T06:59:07.518Z,60.29
2023-03-21T07:00:07.503Z,62.79
2023-03-21T07:01:07.517Z,64.19
2023-03-21T07:02:07.531Z,65.40
2023-03-21T07:03:07.460Z,58.79
2023-03-21T07:04:07.457Z,59.09
2023-03-21T07:05:07.458Z,58.70
2023-03-21T07:06:07.440Z,57.29
2023-03-21T07:07:07.423Z,60.90
2023-03-21T07:08:07.411Z,59.79
2023-03-21T07:09:07.409Z,63.09
2023-03-21T07:10:07.388Z,60.29
2023-03-21T07:11:07.382Z,57.29
2023-03-21T07:12:07.369Z,55.20
2023-03-21T07:13:07.403Z,52.50
2023-03-21T07:14:07.348Z,52.00
2023-03-21T07:15:07.367Z,52.40
2023-03-21T07:16:07.353Z,51.59
2023-03-21T07:17:07.316Z,52.09
2023-03-21T07:18:07.309Z,52.50
2023-03-21T07:19:07.300Z,53.00
2023-03-21T07:20:07.288Z,52.90
2023-03-21T07:21:07.273Z,50.20
2023-03-21T07:22:07.265Z,51.50
2023-03-21T07:23:07.255Z,49.90
2023-03-21T07:24:07.245Z,51.29
2023-03-21T07:25:07.324Z,50.59
2023-03-21T07:26:07.269Z,50.50
2023-03-21T07:27:07.212Z,52.70
2023-03-21T07:28:07.205Z,53.20
2023-03-21T07:29:07.224Z,51.20
2023-03-21T07:30:07.181Z,54.59
2023-03-21T07:31:07.181Z,59.09
2023-03-21T07:32:07.162Z,58.20
2023-03-21T07:33:07.162Z,57.29
2023-03-21T07:34:07.151Z,56.90
2023-03-21T07:35:07.141Z,57.79
2023-03-21T07:36:07.189Z,59.09
2023-03-21T07:37:07.131Z,69.69
2023-03-21T07:38:07.152Z,70.69
2023-03-21T07:39:07.094Z,68.40
2023-03-21T07:40:07.078Z,71.00
2023-03-21T07:41:07.070Z,65.30
2023-03-21T07:42:07.060Z,63.90
2023-03-21T07:43:07.051Z,67.00
2023-03-21T07:45:07.053Z,67.30
2023-03-21T07:46:07.074Z,66.80
2023-03-21T07:47:07.020Z,64.90
2023-03-21T07:48:07.074Z,66.69
2023-03-21T07:49:06.986Z,65.90
2023-03-21T07:50:06.987Z,63.09
2023-03-21T07:51:06.961Z,62.59
2023-03-21T07:52:06.954Z,64.00
2023-03-21T07:53:06.944Z,63.40
2023-03-21T07:54:06.939Z,63.29
2023-03-21T07:55:06.928Z,64.09
2023-03-21T07:56:06.965Z,64.09
2023-03-21T07:57:06.907Z,62.29
2023-03-21T07:58:06.890Z,62.90
2023-03-21T07:59:06.880Z,61.09
2023-03-21T08:00:06.874Z,60.79
2023-03-21T08:01:06.891Z,61.59
2023-03-21T08:02:06.875Z,62.00
2023-03-21T08:03:06.909Z,62.20
2023-03-21T08:04:06.833Z,61.40
2023-03-21T08:05:06.824Z,60.50
2023-03-21T08:06:06.809Z,62.09
2023-03-21T08:07:06.806Z,61.79
2023-03-21T08:08:06.794Z,62.20
2023-03-21T08:09:06.785Z,60.90
2023-03-21T08:10:06.773Z,61.09
2023-03-21T08:11:06.764Z,61.90
2023-03-21T08:12:06.750Z,64.59
2023-03-21T08:13:06.741Z,68.50
2023-03-21T08:14:06.746Z,72.50
2023-03-21T08:15:06.743Z,68.59
2023-03-21T08:16:06.716Z,69.09
2023-03-21T08:17:06.790Z,67.80
2023-03-21T08:18:06.686Z,64.59
2023-03-21T08:19:06.691Z,63.79
2023-03-21T08:20:06.669Z,62.59
2023-03-21T08:21:09.329Z,64.90
2023-03-21T08:22:06.682Z,65.19
2023-03-21T08:23:06.635Z,62.09
2023-03-21T08:24:06.638Z,61.29
2023-03-21T08:25:06.612Z,60.90
2023-03-21T08:26:06.604Z,62.29
2023-03-21T08:27:06.595Z,62.59
2023-03-21T08:28:06.734Z,61.79
2023-03-21T08:29:06.579Z,58.09
2023-03-21T08:30:06.576Z,56.70
2023-03-21T08:31:06.751Z,57.59
2023-03-21T08:32:06.545Z,56.40
2023-03-21T08:33:06.565Z,57.50
2023-03-21T08:34:06.532Z,55.29
2023-03-21T08:35:06.534Z,55.40
2023-03-21T08:36:06.624Z,56.40
2023-03-21T08:37:06.496Z,55.79
2023-03-21T08:38:06.488Z,54.50
2023-03-21T08:39:06.507Z,54.79
2023-03-21T08:40:06.551Z,53.00
2023-03-21T08:41:06.460Z,51.29
2023-03-21T08:42:06.448Z,52.29
2023-03-21T08:43:06.445Z,51.90
2023-03-21T08:44:06.419Z,49.79
2023-03-21T08:45:06.416Z,52.40
2023-03-21T08:46:06.506Z,53.90
2023-03-21T08:47:06.390Z,52.29
2023-03-21T08:48:06.489Z,52.09
2023-03-21T08:49:06.397Z,52.09
2023-03-21T08:50:06.375Z,52.20
2023-03-21T08:51:06.370Z,52.00
2023-03-21T08:52:06.352Z,52.40
2023-03-21T08:53:06.337Z,50.50
2023-03-21T08:54:06.326Z,50.59
2023-03-21T08:55:06.317Z,50.70
2023-03-21T08:56:06.314Z,50.29
2023-03-21T08:57:06.297Z,50.50
2023-03-21T08:58:06.288Z,49.59
2023-03-21T08:59:06.276Z,48.20
2023-03-21T09:00:06.278Z,46.59
2023-03-21T09:01:06.267Z,47.90
2023-03-21T09:02:06.380Z,48.29
2023-03-21T09:03:06.253Z,47.79
2023-03-21T09:04:06.228Z,46.79
2023-03-21T09:05:06.258Z,49.29
2023-03-21T09:06:06.208Z,48.09
2023-03-21T09:07:06.276Z,46.50
2023-03-21T09:08:06.187Z,46.40
2023-03-21T09:09:06.179Z,46.79
2023-03-21T09:10:20.212Z,45.90
2023-03-21T09:11:07.181Z,46.29
2023-03-21T09:12:06.193Z,48.59
2023-03-21T09:13:06.150Z,48.09
2023-03-21T09:14:06.133Z,48.00
2023-03-21T09:15:06.117Z,47.50
2023-03-21T09:16:06.152Z,46.20
2023-03-21T09:17:06.104Z,47.50
2023-03-21T09:18:06.087Z,46.70
2023-03-21T09:19:06.079Z,47.90
2023-03-21T09:20:06.069Z,48.29
2023-03-21T09:21:06.081Z,48.00
2023-03-21T09:22:06.094Z,46.59
2023-03-21T09:23:06.053Z,46.00
2023-03-21T09:24:06.030Z,45.59
2023-03-21T09:25:06.020Z,46.00
2023-03-21T09:26:06.008Z,45.40
2023-03-21T09:27:06.011Z,47.90
2023-03-21T09:28:05.992Z,46.09
2023-03-21T09:29:06.064Z,44.90
2023-03-21T09:30:05.983Z,46.59
2023-03-21T09:31:05.998Z,46.70
2023-03-21T09:32:05.951Z,45.90
2023-03-21T09:33:05.940Z,45.79
2023-03-21T09:34:05.931Z,46.50
2023-03-21T09:35:05.960Z,46.70
2023-03-21T09:36:05.974Z,45.09
2023-03-21T09:37:05.926Z,44.79
2023-03-21T09:38:05.907Z,44.29
2023-03-21T09:39:05.880Z,42.59
2023-03-21T09:40:05.872Z,44.70
2023-03-21T09:41:05.864Z,43.09
2023-03-21T09:42:05.859Z,42.70
2023-03-21T09:43:05.848Z,42.29
2023-03-21T09:44:05.839Z,39.70
2023-03-21T09:45:05.825Z,40.70
2023-03-21T09:46:05.819Z,42.70
2023-03-21T09:47:05.856Z,43.20
2023-03-21T09:48:05.863Z,43.70
2023-03-21T09:49:05.788Z,43.00
2023-03-21T09:51:06.786Z,41.20
2023-03-21T09:52:05.757Z,42.40
2023-03-21T09:53:05.778Z,42.50
2023-03-21T09:54:05.739Z,41.59
2023-03-21T09:56:05.830Z,39.40
2023-03-21T09:57:05.730Z,39.70
2023-03-21T09:58:05.706Z,39.29
2023-03-21T09:59:05.692Z,40.59
2023-03-21T10:00:05.682Z,40.90
2023-03-21T10:01:05.746Z,40.59
2023-03-21T10:02:05.676Z,38.29
2023-03-21T10:03:05.656Z,39.20
2023-03-21T10:04:05.719Z,36.59
2023-03-21T10:05:05.636Z,37.29
2023-03-21T10:06:05.626Z,38.79
2023-03-21T10:07:05.621Z,38.00
2023-03-21T10:08:05.603Z,37.40
2023-03-21T10:09:05.621Z,37.40
2023-03-21T10:10:05.590Z,36.50
2023-03-21T10:11:05.579Z,34.70
2023-03-21T10:12:05.570Z,35.90
2023-03-21T10:13:05.563Z,35.00
2023-03-21T10:14:05.716Z,34.40
2023-03-21T10:15:05.542Z,36.79
2023-03-21T10:16:05.558Z,33.59
2023-03-21T10:17:05.520Z,35.00
2023-03-21T10:18:05.514Z,37.09
2023-03-21T10:19:05.500Z,35.40
2023-03-21T10:20:05.484Z,33.59
2023-03-21T10:21:05.476Z,31.00
2023-03-21T10:22:05.471Z,29.89
2023-03-21T10:23:05.455Z,30.70
2023-03-21T10:24:05.448Z,29.50
2023-03-21T10:25:05.463Z,28.39
2023-03-21T10:26:05.436Z,28.60
2023-03-21T10:27:05.570Z,29.79
2023-03-21T10:28:05.408Z,31.00
2023-03-21T10:29:05.460Z,32.40
2023-03-21T10:30:05.397Z,29.70
2023-03-21T10:31:05.372Z,28.60
2023-03-21T10:32:05.540Z,29.50
2023-03-21T10:33:05.513Z,24.50
2023-03-21T10:34:05.347Z,25.70
2023-03-21T10:35:05.458Z,25.50
2023-03-21T10:36:05.400Z,23.60
2023-03-21T10:37:05.497Z,24.20
2023-03-21T10:38:05.307Z,26.50
2023-03-21T10:39:05.294Z,27.70
2023-03-21T10:40:05.284Z,28.20
2023-03-21T10:41:05.357Z,26.50
2023-03-21T10:42:05.268Z,26.89
2023-03-21T10:43:05.258Z,28.39
2023-03-21T10:44:05.257Z,32.40
2023-03-21T10:45:05.237Z,32.00
2023-03-21T10:46:05.655Z,34.79
2023-03-21T10:47:05.410Z,34.59
2023-03-21T10:48:05.596Z,34.70
2023-03-21T10:49:05.225Z,34.40
2023-03-21T10:50:08.524Z,34.00
2023-03-21T10:51:05.182Z,34.29
2023-03-21T10:52:05.182Z,35.09
2023-03-21T10:53:05.156Z,34.20
2023-03-21T10:54:05.148Z,32.90
2023-03-21T10:55:05.139Z,33.59
2023-03-21T10:56:05.132Z,33.79
2023-03-21T10:57:05.145Z,35.09
2023-03-21T10:58:05.114Z,35.70
2023-03-21T10:59:05.105Z,35.09
2023-03-21T11:00:05.101Z,34.59
2023-03-21T11:01:05.202Z,31.50
2023-03-21T11:02:05.122Z,32.70
2023-03-21T11:03:05.064Z,31.89
2023-03-21T11:04:05.056Z,30.60
2023-03-21T11:05:05.052Z,34.40
2023-03-21T11:06:05.036Z,34.20
2023-03-21T11:07:05.027Z,35.50
2023-03-21T11:08:05.015Z,34.40
2023-03-21T11:09:05.014Z,35.70
2023-03-21T11:10:04.998Z,35.40
2023-03-21T11:11:05.007Z,35.70
2023-03-21T11:12:04.984Z,33.50
2023-03-21T11:13:05.004Z,34.09
2023-03-21T11:14:04.998Z,32.70
2023-03-21T11:15:04.956Z,32.00
2023-03-21T11:16:04.942Z,32.00
2023-03-21T11:17:05.077Z,30.79
2023-03-21T11:18:04.931Z,34.79
2023-03-21T11:19:04.920Z,36.29
2023-03-21T11:20:04.912Z,34.70
2023-03-21T11:21:04.900Z,34.00
2023-03-21T11:22:04.894Z,32.09
2023-03-21T11:23:04.890Z,33.59
2023-03-21T11:24:04.880Z,32.29
2023-03-21T11:25:04.861Z,34.00
2023-03-21T11:26:04.859Z,34.20
2023-03-21T11:27:04.863Z,36.70
2023-03-21T11:28:04.840Z,35.79
2023-03-21T11:29:04.856Z,35.59
2023-03-21T11:30:04.823Z,34.59
2023-03-21T11:31:04.905Z,34.40
2023-03-21T11:32:04.805Z,34.50
2023-03-21T11:33:04.794Z,35.70
2023-03-21T11:34:04.783Z,36.29
2023-03-21T11:35:04.780Z,35.00
2023-03-21T11:36:04.856Z,35.00
2023-03-21T11:37:04.756Z,34.50
2023-03-21T11:38:04.746Z,34.09
2023-03-21T11:39:04.736Z,33.79
2023-03-21T11:40:04.723Z,36.09
2023-03-21T11:41:04.715Z,34.40
2023-03-21T11:42:04.707Z,33.09
2023-03-21T11:43:04.701Z,32.00
2023-03-21T11:48:05.047Z,32.20
2023-03-21T11:48:06.537Z,32.59
2023-03-21T11:49:14.146Z,32.29
2023-03-21T12:40:39.668Z,30.39
2023-03-21T12:40:41.085Z,24.79
2023-03-21T12:41:41.071Z,24.79
2023-03-21T13:13:07.916Z,24.50
2023-03-21T13:19:41.350Z,26.89
2023-03-21T13:19:42.763Z,26.79
2023-03-21T13:37:01.489Z,26.50
2023-03-21T13:38:02.903Z,28.20
2023-03-21T13:39:02.976Z,25.70
2023-03-21T13:40:02.890Z,25.60
2023-03-21T13:41:02.874Z,27.70
2023-03-21T13:42:02.863Z,25.60
2023-03-21T13:43:02.854Z,26.10
2023-03-21T13:44:02.857Z,29.50
2023-03-21T13:45:02.842Z,28.39
2023-03-21T13:54:57.820Z,27.60
2023-03-21T13:54:59.233Z,25.70
2023-03-21T13:59:05.598Z,25.79
2023-03-21T13:59:07.023Z,26.10
2023-03-21T14:00:07.014Z,26.79
2023-03-21T14:01:07.054Z,27.39
2023-03-21T14:02:13.954Z,26.79
2023-03-21T14:37:40.988Z,26.39
2023-03-21T14:37:47.191Z,26.70
2023-03-21T14:38:42.443Z,26.10
2023-03-21T14:39:42.385Z,24.70
2023-03-21T14:40:42.377Z,24.79
2023-03-21T14:41:42.366Z,25.50
2023-03-21T14:42:42.365Z,25.29
2023-03-21T14:47:19.627Z,24.10
2023-03-21T14:47:21.039Z,24.79
2023-03-21T14:48:21.071Z,24.89
2023-03-21T14:49:21.026Z,24.29
2023-03-21T14:50:21.013Z,24.60
2023-03-21T14:51:20.999Z,25.70
2023-03-21T14:55:41.634Z,24.20
2023-03-21T14:56:43.048Z,24.10
2023-03-21T14:57:43.040Z,22.89
2023-03-21T14:59:22.777Z,22.89
2023-03-21T14:59:43.044Z,23.79
2023-03-21T15:00:43.061Z,24.00
2023-03-21T15:01:43.077Z,22.70
2023-03-21T15:02:43.072Z,24.10
2023-03-21T15:03:42.981Z,23.00
2023-03-21T15:04:43.036Z,23.00
2023-03-21T15:05:42.964Z,23.89
2023-03-21T15:06:42.954Z,24.70
2023-03-21T15:07:42.957Z,23.29
2023-03-21T15:08:42.935Z,26.39
2023-03-21T15:09:42.929Z,24.70
2023-03-21T15:10:42.917Z,25.39
2023-03-21T15:11:43.028Z,25.00
2023-03-21T15:12:42.898Z,25.39
2023-03-21T15:13:42.904Z,23.60
2023-03-21T15:14:42.876Z,25.39
2023-03-21T15:15:43.275Z,26.70
2023-03-21T15:16:42.856Z,25.70
2023-03-21T15:17:42.853Z,24.29
2023-03-21T15:18:42.859Z,24.00
2023-03-21T15:19:42.825Z,23.00
2023-03-21T15:20:42.843Z,24.20
2023-03-21T15:21:42.810Z,24.50
2023-03-21T15:22:42.804Z,23.50
2023-03-21T15:23:42.791Z,24.89
2023-03-21T15:24:42.817Z,23.39
2023-03-21T15:25:42.769Z,22.39
2023-03-21T15:26:42.767Z,22.70
2023-03-21T15:27:42.876Z,22.39
2023-03-21T15:28:42.743Z,23.39
2023-03-21T15:29:42.734Z,22.20
2023-03-21T15:30:42.726Z,23.29
2023-03-21T15:31:42.830Z,22.39
2023-03-21T15:32:42.712Z,22.29
2023-03-21T15:33:42.700Z,22.39
2023-03-21T15:34:42.739Z,23.20
2023-03-21T15:35:43.321Z,21.70
2023-03-21T15:36:42.681Z,22.20
2023-03-21T15:37:42.663Z,23.50
2023-03-21T15:38:42.662Z,22.29
2023-03-21T15:39:42.637Z,24.20
2023-03-21T15:40:42.628Z,22.60
2023-03-21T15:41:42.616Z,22.39
2023-03-21T15:42:42.608Z,22.89
2023-03-21T15:43:42.724Z,23.00
2023-03-21T15:44:42.591Z,22.60
2023-03-21T15:45:42.580Z,22.00
2023-03-21T15:46:42.645Z,23.29
2023-03-21T15:47:42.664Z,23.89
2023-03-21T15:48:42.561Z,23.29
2023-03-21T15:49:42.685Z,24.00
2023-03-21T15:50:42.540Z,24.29
2023-03-21T15:51:42.550Z,23.70
2023-03-21T15:52:42.515Z,22.70
2023-03-21T15:53:42.496Z,21.20
2023-03-21T15:54:42.525Z,23.10
2023-03-21T15:55:42.474Z,22.10
2023-03-21T15:56:42.497Z,23.10
2023-03-21T15:57:42.455Z,21.70
2023-03-21T15:58:42.449Z,22.39
2023-03-21T15:59:42.669Z,21.70
2023-03-21T16:00:42.929Z,22.50
2023-03-21T16:01:42.486Z,23.20
2023-03-21T16:02:42.415Z,22.50
2023-03-21T16:03:42.410Z,22.70
2023-03-21T16:04:42.386Z,22.60
2023-03-21T16:05:42.373Z,23.10
2023-03-21T16:06:42.365Z,22.79
2023-03-21T16:07:42.353Z,22.29
2023-03-21T16:08:42.352Z,22.10
2023-03-21T16:09:42.337Z,23.00
2023-03-21T16:10:42.345Z,22.29
2023-03-21T16:11:42.333Z,22.60
2023-03-21T16:12:42.302Z,24.00